sensor_id;sensor_type;location;lat;lon;timestamp;temperature;humidity
45066;DHT22;30830;53.704;10.004;2023-04-03T00:01:14;-0.30;99.90
45066;DHT22;30830;53.704;10.004;2023-04-03T00:03:40;-0.30;99.90
45066;DHT22;30830;53.704;10.004;2023-04-03T00:06:07;-0.40;99.90
45066;DHT22;30830;53.704;10.004;2023-04-03T00:08:34;-0.40;99.90
45066;DHT22;30830;53.704;10.004;2023-04-03T00:11:00;-0.40;99.90
45066;DHT22;30830;53.704;10.004;2023-04-03T00:13:26;-0.40;99.90
45066;DHT22;30830;53.704;10.004;2023-04-03T00:15:52;-0.50;99.90
45066;DHT22;30830;53.704;10.004;2023-04-03T00:18:17;-0.50;99.90
45066;DHT22;30830;53.704;10.004;2023-04-03T00:20:43;-0.50;99.90
45066;DHT22;30830;53.704;10.004;2023-04-03T00:23:09;-0.50;99.90
45066;DHT22;30830;53.704;10.004;2023-04-03T00:25:35;-0.50;99.90
45066;DHT22;30830;53.704;10.004;2023-04-03T00:28:00;-0.60;99.90
45066;DHT22;30830;53.704;10.004;2023-04-03T00:30:26;-0.60;99.90
45066;DHT22;30830;53.704;10.004;2023-04-03T00:32:52;-0.60;99.90
45066;DHT22;30830;53.704;10.004;2023-04-03T00:35:19;-0.60;99.90
45066;DHT22;30830;53.704;10.004;2023-04-03T00:37:45;-0.60;99.90
45066;DHT22;30830;53.704;10.004;2023-04-03T00:40:13;-0.60;99.90
45066;DHT22;30830;53.704;10.004;2023-04-03T00:42:40;-0.70;99.90
45066;DHT22;30830;53.704;10.004;2023-04-03T00:47:31;-0.70;99.90
45066;DHT22;30830;53.704;10.004;2023-04-03T00:49:58;-0.80;99.90
45066;DHT22;30830;53.704;10.004;2023-04-03T00:52:29;-0.80;99.90
45066;DHT22;30830;53.704;10.004;2023-04-03T00:54:59;-0.80;99.90
45066;DHT22;30830;53.704;10.004;2023-04-03T00:57:27;-0.80;99.90
45066;DHT22;30830;53.704;10.004;2023-04-03T00:59:56;-0.80;99.90
45066;DHT22;30830;53.704;10.004;2023-04-03T01:02:23;-0.90;99.90
45066;DHT22;30830;53.704;10.004;2023-04-03T01:04:48;-0.90;99.90
45066;DHT22;30830;53.704;10.004;2023-04-03T01:07:17;-0.90;99.90
45066;DHT22;30830;53.704;10.004;2023-04-03T01:09:45;-0.90;99.90
45066;DHT22;30830;53.704;10.004;2023-04-03T01:12:26;-0.90;99.90
45066;DHT22;30830;53.704;10.004;2023-04-03T01:14:55;-0.90;99.90
45066;DHT22;30830;53.704;10.004;2023-04-03T01:22:36;-1.00;99.90
45066;DHT22;30830;53.704;10.004;2023-04-03T01:25:06;-1.00;99.90
45066;DHT22;30830;53.704;10.004;2023-04-03T01:27:32;-1.10;99.90
45066;DHT22;30830;53.704;10.004;2023-04-03T01:29:58;-1.10;99.90
45066;DHT22;30830;53.704;10.004;2023-04-03T01:32:23;-1.10;99.90
45066;DHT22;30830;53.704;10.004;2023-04-03T01:34:49;-1.10;99.90
45066;DHT22;30830;53.704;10.004;2023-04-03T01:37:14;-1.10;99.90
45066;DHT22;30830;53.704;10.004;2023-04-03T01:39:40;-1.10;99.90
45066;DHT22;30830;53.704;10.004;2023-04-03T01:42:06;-1.10;99.90
45066;DHT22;30830;53.704;10.004;2023-04-03T01:44:31;-1.10;99.90
45066;DHT22;30830;53.704;10.004;2023-04-03T01:46:57;-1.20;99.90
45066;DHT22;30830;53.704;10.004;2023-04-03T01:49:22;-1.10;99.90
45066;DHT22;30830;53.704;10.004;2023-04-03T01:51:48;-1.10;99.90
45066;DHT22;30830;53.704;10.004;2023-04-03T01:54:14;-1.20;99.90
45066;DHT22;30830;53.704;10.004;2023-04-03T01:56:39;-1.10;99.90
45066;DHT22;30830;53.704;10.004;2023-04-03T01:59:05;-1.10;99.90
45066;DHT22;30830;53.704;10.004;2023-04-03T02:01:30;-1.10;99.90
45066;DHT22;30830;53.704;10.004;2023-04-03T02:03:56;-1.10;99.90
45066;DHT22;30830;53.704;10.004;2023-04-03T02:06:21;-1.10;99.90
45066;DHT22;30830;53.704;10.004;2023-04-03T02:08:47;-1.10;99.90
45066;DHT22;30830;53.704;10.004;2023-04-03T02:11:12;-1.10;99.90
45066;DHT22;30830;53.704;10.004;2023-04-03T02:13:38;-1.10;99.90
45066;DHT22;30830;53.704;10.004;2023-04-03T02:16:09;-1.10;99.90
45066;DHT22;30830;53.704;10.004;2023-04-03T02:18:35;-1.10;99.90
45066;DHT22;30830;53.704;10.004;2023-04-03T02:21:01;-1.10;99.90
45066;DHT22;30830;53.704;10.004;2023-04-03T02:23:26;-1.10;99.90
45066;DHT22;30830;53.704;10.004;2023-04-03T02:25:52;-1.10;99.90
45066;DHT22;30830;53.704;10.004;2023-04-03T02:28:17;-1.10;99.90
45066;DHT22;30830;53.704;10.004;2023-04-03T02:30:43;-1.10;99.90
45066;DHT22;30830;53.704;10.004;2023-04-03T02:33:08;-1.10;99.90
45066;DHT22;30830;53.704;10.004;2023-04-03T02:35:34;-1.10;99.90
45066;DHT22;30830;53.704;10.004;2023-04-03T02:37:59;-1.10;99.90
45066;DHT22;30830;53.704;10.004;2023-04-03T02:40:25;-1.10;99.90
45066;DHT22;30830;53.704;10.004;2023-04-03T02:42:51;-1.10;99.90
45066;DHT22;30830;53.704;10.004;2023-04-03T02:45:16;-1.10;99.90
45066;DHT22;30830;53.704;10.004;2023-04-03T02:47:42;-1.10;99.90
45066;DHT22;30830;53.704;10.004;2023-04-03T02:50:08;-1.20;99.90
45066;DHT22;30830;53.704;10.004;2023-04-03T02:52:33;-1.20;99.90
45066;DHT22;30830;53.704;10.004;2023-04-03T02:54:59;-1.20;99.90
45066;DHT22;30830;53.704;10.004;2023-04-03T02:57:25;-1.20;99.90
45066;DHT22;30830;53.704;10.004;2023-04-03T02:59:50;-1.20;99.90
45066;DHT22;30830;53.704;10.004;2023-04-03T03:02:16;-1.20;99.90
45066;DHT22;30830;53.704;10.004;2023-04-03T03:04:41;-1.20;99.90
45066;DHT22;30830;53.704;10.004;2023-04-03T03:07:07;-1.30;99.90
45066;DHT22;30830;53.704;10.004;2023-04-03T03:09:33;-1.30;99.90
45066;DHT22;30830;53.704;10.004;2023-04-03T03:11:59;-1.30;99.90
45066;DHT22;30830;53.704;10.004;2023-04-03T03:14:25;-1.30;99.90
45066;DHT22;30830;53.704;10.004;2023-04-03T03:16:50;-1.30;99.90
45066;DHT22;30830;53.704;10.004;2023-04-03T03:19:16;-1.30;99.90
45066;DHT22;30830;53.704;10.004;2023-04-03T03:21:42;-1.30;99.90
45066;DHT22;30830;53.704;10.004;2023-04-03T03:24:08;-1.30;99.90
45066;DHT22;30830;53.704;10.004;2023-04-03T03:26:33;-1.30;99.90
45066;DHT22;30830;53.704;10.004;2023-04-03T03:28:59;-1.30;99.90
45066;DHT22;30830;53.704;10.004;2023-04-03T03:31:25;-1.30;99.90
45066;DHT22;30830;53.704;10.004;2023-04-03T03:33:50;-1.30;99.90
45066;DHT22;30830;53.704;10.004;2023-04-03T03:36:16;-1.30;99.90
45066;DHT22;30830;53.704;10.004;2023-04-03T03:38:41;-1.30;99.90
45066;DHT22;30830;53.704;10.004;2023-04-03T03:41:07;-1.30;99.90
45066;DHT22;30830;53.704;10.004;2023-04-03T03:43:33;-1.30;99.90
45066;DHT22;30830;53.704;10.004;2023-04-03T03:45:58;-1.30;99.90
45066;DHT22;30830;53.704;10.004;2023-04-03T03:48:24;-1.40;99.90
45066;DHT22;30830;53.704;10.004;2023-04-03T03:50:50;-1.40;99.90
45066;DHT22;30830;53.704;10.004;2023-04-03T03:53:15;-1.40;99.90
45066;DHT22;30830;53.704;10.004;2023-04-03T03:55:41;-1.40;99.90
45066;DHT22;30830;53.704;10.004;2023-04-03T03:58:07;-1.40;99.90
45066;DHT22;30830;53.704;10.004;2023-04-03T04:00:33;-1.40;99.90
45066;DHT22;30830;53.704;10.004;2023-04-03T04:02:58;-1.40;99.90
45066;DHT22;30830;53.704;10.004;2023-04-03T04:05:24;-1.40;99.90
45066;DHT22;30830;53.704;10.004;2023-04-03T04:07:49;-1.40;99.90
45066;DHT22;30830;53.704;10.004;2023-04-03T04:10:16;-1.50;99.90
45066;DHT22;30830;53.704;10.004;2023-04-03T04:12:41;-1.50;99.90
45066;DHT22;30830;53.704;10.004;2023-04-03T04:15:07;-1.50;99.90
45066;DHT22;30830;53.704;10.004;2023-04-03T04:17:33;-1.50;99.90
45066;DHT22;30830;53.704;10.004;2023-04-03T04:20:00;-1.50;99.90
45066;DHT22;30830;53.704;10.004;2023-04-03T04:22:26;-1.50;99.90
45066;DHT22;30830;53.704;10.004;2023-04-03T04:24:51;-1.50;99.90
45066;DHT22;30830;53.704;10.004;2023-04-03T04:27:17;-1.40;99.90
45066;DHT22;30830;53.704;10.004;2023-04-03T04:29:43;-1.50;99.90
45066;DHT22;30830;53.704;10.004;2023-04-03T04:32:08;-1.50;99.90
45066;DHT22;30830;53.704;10.004;2023-04-03T04:34:34;-1.50;99.90
45066;DHT22;30830;53.704;10.004;2023-04-03T04:36:59;-1.50;99.90
45066;DHT22;30830;53.704;10.004;2023-04-03T04:39:25;-1.40;99.90
45066;DHT22;30830;53.704;10.004;2023-04-03T04:41:50;-1.40;99.90
45066;DHT22;30830;53.704;10.004;2023-04-03T04:44:16;-1.40;99.90
45066;DHT22;30830;53.704;10.004;2023-04-03T04:46:42;-1.40;99.90
45066;DHT22;30830;53.704;10.004;2023-04-03T04:49:07;-1.40;99.90
45066;DHT22;30830;53.704;10.004;2023-04-03T04:51:33;-1.40;99.90
45066;DHT22;30830;53.704;10.004;2023-04-03T04:53:58;-1.40;99.90
45066;DHT22;30830;53.704;10.004;2023-04-03T04:56:24;-1.50;99.90
45066;DHT22;30830;53.704;10.004;2023-04-03T04:58:50;-1.50;99.90
45066;DHT22;30830;53.704;10.004;2023-04-03T05:01:16;-1.50;99.90
45066;DHT22;30830;53.704;10.004;2023-04-03T05:03:42;-1.50;99.90
45066;DHT22;30830;53.704;10.004;2023-04-03T05:06:07;-1.50;99.90
45066;DHT22;30830;53.704;10.004;2023-04-03T05:08:33;-1.50;99.90
45066;DHT22;30830;53.704;10.004;2023-04-03T05:10:58;-1.50;99.90
45066;DHT22;30830;53.704;10.004;2023-04-03T05:13:24;-1.50;99.90
45066;DHT22;30830;53.704;10.004;2023-04-03T05:15:50;-1.60;99.90
45066;DHT22;30830;53.704;10.004;2023-04-03T05:18:15;-1.60;99.90
45066;DHT22;30830;53.704;10.004;2023-04-03T05:20:41;-1.60;99.90
45066;DHT22;30830;53.704;10.004;2023-04-03T05:23:09;-1.60;99.90
45066;DHT22;30830;53.704;10.004;2023-04-03T05:25:37;-1.60;99.90
45066;DHT22;30830;53.704;10.004;2023-04-03T05:28:03;-1.60;99.90
45066;DHT22;30830;53.704;10.004;2023-04-03T05:30:29;-1.60;99.90
45066;DHT22;30830;53.704;10.004;2023-04-03T05:32:54;-1.60;99.90
45066;DHT22;30830;53.704;10.004;2023-04-03T05:35:20;-1.60;99.90
45066;DHT22;30830;53.704;10.004;2023-04-03T05:37:45;-1.60;99.90
45066;DHT22;30830;53.704;10.004;2023-04-03T05:40:11;-1.50;99.90
45066;DHT22;30830;53.704;10.004;2023-04-03T05:42:36;-1.60;99.90
45066;DHT22;30830;53.704;10.004;2023-04-03T05:45:02;-1.50;99.90
45066;DHT22;30830;53.704;10.004;2023-04-03T05:47:28;-1.50;99.90
45066;DHT22;30830;53.704;10.004;2023-04-03T05:49:53;-1.50;99.90
45066;DHT22;30830;53.704;10.004;2023-04-03T05:52:28;-1.50;99.90
45066;DHT22;30830;53.704;10.004;2023-04-03T05:54:54;-1.40;99.90
45066;DHT22;30830;53.704;10.004;2023-04-03T05:57:20;-1.40;99.90
45066;DHT22;30830;53.704;10.004;2023-04-03T05:59:46;-1.30;99.90
45066;DHT22;30830;53.704;10.004;2023-04-03T06:02:15;-1.30;99.90
45066;DHT22;30830;53.704;10.004;2023-04-03T06:04:41;-1.30;99.90
45066;DHT22;30830;53.704;10.004;2023-04-03T06:07:08;-1.20;99.90
45066;DHT22;30830;53.704;10.004;2023-04-03T06:09:36;-1.20;99.90
45066;DHT22;30830;53.704;10.004;2023-04-03T06:12:01;-1.10;99.90
45066;DHT22;30830;53.704;10.004;2023-04-03T06:14:27;-1.00;99.90
45066;DHT22;30830;53.704;10.004;2023-04-03T06:16:53;-0.90;99.90
45066;DHT22;30830;53.704;10.004;2023-04-03T06:19:19;-0.80;99.90
45066;DHT22;30830;53.704;10.004;2023-04-03T06:21:45;-0.70;99.90
45066;DHT22;30830;53.704;10.004;2023-04-03T06:24:15;-0.60;99.90
45066;DHT22;30830;53.704;10.004;2023-04-03T06:26:41;-0.50;99.90
45066;DHT22;30830;53.704;10.004;2023-04-03T06:29:06;-0.40;99.90
45066;DHT22;30830;53.704;10.004;2023-04-03T06:31:32;-0.30;99.90
45066;DHT22;30830;53.704;10.004;2023-04-03T06:33:58;-0.30;99.90
45066;DHT22;30830;53.704;10.004;2023-04-03T06:36:23;-0.10;99.90
45066;DHT22;30830;53.704;10.004;2023-04-03T06:38:49;0.00;99.90
45066;DHT22;30830;53.704;10.004;2023-04-03T06:41:15;0.10;99.90
45066;DHT22;30830;53.704;10.004;2023-04-03T06:43:42;0.20;99.90
45066;DHT22;30830;53.704;10.004;2023-04-03T06:46:16;0.30;99.90
45066;DHT22;30830;53.704;10.004;2023-04-03T06:48:43;0.50;99.90
45066;DHT22;30830;53.704;10.004;2023-04-03T06:51:24;0.60;99.90
45066;DHT22;30830;53.704;10.004;2023-04-03T06:53:52;0.70;99.90
45066;DHT22;30830;53.704;10.004;2023-04-03T06:56:18;0.80;99.90
45066;DHT22;30830;53.704;10.004;2023-04-03T06:58:44;0.90;99.90
45066;DHT22;30830;53.704;10.004;2023-04-03T07:01:12;1.10;99.90
45066;DHT22;30830;53.704;10.004;2023-04-03T07:03:38;1.10;99.90
45066;DHT22;30830;53.704;10.004;2023-04-03T07:06:04;1.30;99.90
45066;DHT22;30830;53.704;10.004;2023-04-03T07:08:31;1.40;99.90
45066;DHT22;30830;53.704;10.004;2023-04-03T07:10:57;1.50;99.90
45066;DHT22;30830;53.704;10.004;2023-04-03T07:13:23;1.70;99.90
45066;DHT22;30830;53.704;10.004;2023-04-03T07:15:48;1.80;99.90
45066;DHT22;30830;53.704;10.004;2023-04-03T07:18:14;1.90;99.90
45066;DHT22;30830;53.704;10.004;2023-04-03T07:20:40;2.00;99.90
45066;DHT22;30830;53.704;10.004;2023-04-03T07:23:05;2.20;99.90
45066;DHT22;30830;53.704;10.004;2023-04-03T07:25:31;2.30;99.90
45066;DHT22;30830;53.704;10.004;2023-04-03T07:27:57;2.50;99.90
45066;DHT22;30830;53.704;10.004;2023-04-03T07:30:23;2.70;99.90
45066;DHT22;30830;53.704;10.004;2023-04-03T07:32:48;2.80;99.90
45066;DHT22;30830;53.704;10.004;2023-04-03T07:35:14;3.00;99.90
45066;DHT22;30830;53.704;10.004;2023-04-03T07:37:40;3.20;99.90
45066;DHT22;30830;53.704;10.004;2023-04-03T07:40:06;3.40;99.90
45066;DHT22;30830;53.704;10.004;2023-04-03T07:42:32;3.50;99.90
45066;DHT22;30830;53.704;10.004;2023-04-03T07:44:57;3.70;99.90
45066;DHT22;30830;53.704;10.004;2023-04-03T07:47:23;3.90;99.90
45066;DHT22;30830;53.704;10.004;2023-04-03T07:49:49;4.10;99.90
45066;DHT22;30830;53.704;10.004;2023-04-03T07:52:14;4.20;99.90
45066;DHT22;30830;53.704;10.004;2023-04-03T07:54:41;4.30;99.90
45066;DHT22;30830;53.704;10.004;2023-04-03T07:57:06;4.40;99.90
45066;DHT22;30830;53.704;10.004;2023-04-03T07:59:32;4.50;99.90
45066;DHT22;30830;53.704;10.004;2023-04-03T08:01:58;4.70;99.90
45066;DHT22;30830;53.704;10.004;2023-04-03T08:04:24;4.60;99.90
45066;DHT22;30830;53.704;10.004;2023-04-03T08:06:51;4.80;99.90
45066;DHT22;30830;53.704;10.004;2023-04-03T08:09:17;5.00;99.90
45066;DHT22;30830;53.704;10.004;2023-04-03T08:11:43;5.20;99.90
45066;DHT22;30830;53.704;10.004;2023-04-03T08:14:09;5.40;99.90
45066;DHT22;30830;53.704;10.004;2023-04-03T08:16:41;5.50;99.90
45066;DHT22;30830;53.704;10.004;2023-04-03T08:19:07;5.70;99.90
45066;DHT22;30830;53.704;10.004;2023-04-03T08:21:32;5.70;99.90
45066;DHT22;30830;53.704;10.004;2023-04-03T08:23:58;5.80;99.90
45066;DHT22;30830;53.704;10.004;2023-04-03T08:26:24;5.70;99.90
45066;DHT22;30830;53.704;10.004;2023-04-03T08:28:51;5.40;99.90
45066;DHT22;30830;53.704;10.004;2023-04-03T08:31:18;5.40;99.90
45066;DHT22;30830;53.704;10.004;2023-04-03T08:33:46;5.60;99.90
45066;DHT22;30830;53.704;10.004;2023-04-03T08:36:30;5.90;99.90
45066;DHT22;30830;53.704;10.004;2023-04-03T08:38:56;6.00;99.90
45066;DHT22;30830;53.704;10.004;2023-04-03T08:41:35;6.30;99.90
45066;DHT22;30830;53.704;10.004;2023-04-03T08:46:47;6.90;99.90
45066;DHT22;30830;53.704;10.004;2023-04-03T08:55:06;7.50;99.90
45066;DHT22;30830;53.704;10.004;2023-04-03T08:57:41;7.70;99.90
45066;DHT22;30830;53.704;10.004;2023-04-03T09:00:20;7.80;99.90
45066;DHT22;30830;53.704;10.004;2023-04-03T09:02:49;7.90;99.90
45066;DHT22;30830;53.704;10.004;2023-04-03T09:05:41;8.00;99.20
45066;DHT22;30830;53.704;10.004;2023-04-03T09:08:26;7.50;98.90
45066;DHT22;30830;53.704;10.004;2023-04-03T09:13:59;7.80;99.90
45066;DHT22;30830;53.704;10.004;2023-04-03T09:16:41;7.90;99.90
45066;DHT22;30830;53.704;10.004;2023-04-03T09:19:33;8.20;99.90
45066;DHT22;30830;53.704;10.004;2023-04-03T09:22:20;8.30;98.00
45066;DHT22;30830;53.704;10.004;2023-04-03T09:24:52;8.50;93.80
45066;DHT22;30830;53.704;10.004;2023-04-03T09:27:21;8.30;91.40
45066;DHT22;30830;53.704;10.004;2023-04-03T09:29:47;7.80;90.90
45066;DHT22;30830;53.704;10.004;2023-04-03T09:32:29;7.30;92.80
45066;DHT22;30830;53.704;10.004;2023-04-03T09:34:59;7.30;93.00
45066;DHT22;30830;53.704;10.004;2023-04-03T09:37:44;7.40;91.20
45066;DHT22;30830;53.704;10.004;2023-04-03T09:42:55;7.60;94.20
45066;DHT22;30830;53.704;10.004;2023-04-03T09:45:27;7.60;93.00
45066;DHT22;30830;53.704;10.004;2023-04-03T09:53:36;7.40;93.90
45066;DHT22;30830;53.704;10.004;2023-04-03T09:56:05;7.20;93.00
45066;DHT22;30830;53.704;10.004;2023-04-03T09:58:48;7.40;93.90
45066;DHT22;30830;53.704;10.004;2023-04-03T10:01:37;7.60;94.00
45066;DHT22;30830;53.704;10.004;2023-04-03T10:04:12;7.30;92.70
45066;DHT22;30830;53.704;10.004;2023-04-03T10:06:43;6.90;92.40
45066;DHT22;30830;53.704;10.004;2023-04-03T10:09:22;6.90;94.40
45066;DHT22;30830;53.704;10.004;2023-04-03T10:14:19;7.00;95.20
45066;DHT22;30830;53.704;10.004;2023-04-03T10:17:01;7.30;94.30
45066;DHT22;30830;53.704;10.004;2023-04-03T10:22:18;7.80;93.70
45066;DHT22;30830;53.704;10.004;2023-04-03T10:25:08;7.70;94.70
45066;DHT22;30830;53.704;10.004;2023-04-03T10:27:59;7.60;93.50
45066;DHT22;30830;53.704;10.004;2023-04-03T10:35:44;7.30;94.80
45066;DHT22;30830;53.704;10.004;2023-04-03T10:38:33;6.90;93.80
45066;DHT22;30830;53.704;10.004;2023-04-03T10:41:17;6.60;94.90
45066;DHT22;30830;53.704;10.004;2023-04-03T10:47:22;6.50;95.20
45066;DHT22;30830;53.704;10.004;2023-04-03T10:49:54;6.70;94.60
45066;DHT22;30830;53.704;10.004;2023-04-03T10:52:27;6.70;92.90
45066;DHT22;30830;53.704;10.004;2023-04-03T10:57:47;6.60;93.20
45066;DHT22;30830;53.704;10.004;2023-04-03T11:00:25;6.60;93.90
45066;DHT22;30830;53.704;10.004;2023-04-03T11:02:58;6.50;93.20
45066;DHT22;30830;53.704;10.004;2023-04-03T11:05:40;6.50;93.60
45066;DHT22;30830;53.704;10.004;2023-04-03T11:08:19;6.40;93.10
45066;DHT22;30830;53.704;10.004;2023-04-03T11:10:49;6.30;93.80
45066;DHT22;30830;53.704;10.004;2023-04-03T11:16:03;6.30;93.90
45066;DHT22;30830;53.704;10.004;2023-04-03T11:18:41;6.30;94.20
45066;DHT22;30830;53.704;10.004;2023-04-03T11:21:17;6.30;94.70
45066;DHT22;30830;53.704;10.004;2023-04-03T11:23:46;6.40;94.30
45066;DHT22;30830;53.704;10.004;2023-04-03T11:26:22;6.40;94.80
45066;DHT22;30830;53.704;10.004;2023-04-03T11:28:58;6.50;94.70
45066;DHT22;30830;53.704;10.004;2023-04-03T11:37:05;6.60;94.10
45066;DHT22;30830;53.704;10.004;2023-04-03T11:39:37;6.70;94.50
45066;DHT22;30830;53.704;10.004;2023-04-03T11:42:34;7.10;94.50
45066;DHT22;30830;53.704;10.004;2023-04-03T11:50:47;7.70;92.60
45066;DHT22;30830;53.704;10.004;2023-04-03T11:58:20;8.30;92.90
45066;DHT22;30830;53.704;10.004;2023-04-03T12:00:47;8.40;93.50
45066;DHT22;30830;53.704;10.004;2023-04-03T12:03:31;8.60;92.80
45066;DHT22;30830;53.704;10.004;2023-04-03T12:16:30;7.30;92.10
45066;DHT22;30830;53.704;10.004;2023-04-03T12:19:01;7.20;92.10
45066;DHT22;30830;53.704;10.004;2023-04-03T12:30:18;7.80;93.00
45066;DHT22;30830;53.704;10.004;2023-04-03T12:44:11;8.50;84.30
45066;DHT22;30830;53.704;10.004;2023-04-03T12:46:46;8.30;87.30
45066;DHT22;30830;53.704;10.004;2023-04-03T12:49:41;8.30;85.30
45066;DHT22;30830;53.704;10.004;2023-04-03T12:52:25;8.00;80.90
45066;DHT22;30830;53.704;10.004;2023-04-03T12:54:55;7.70;85.90
45066;DHT22;30830;53.704;10.004;2023-04-03T12:57:25;7.50;89.40
45066;DHT22;30830;53.704;10.004;2023-04-03T12:59:51;7.50;89.20
45066;DHT22;30830;53.704;10.004;2023-04-03T13:04:46;7.70;90.60
45066;DHT22;30830;53.704;10.004;2023-04-03T13:07:23;7.80;89.20
45066;DHT22;30830;53.704;10.004;2023-04-03T13:12:44;7.70;86.50
45066;DHT22;30830;53.704;10.004;2023-04-03T13:15:25;7.80;85.00
45066;DHT22;30830;53.704;10.004;2023-04-03T13:17:53;7.90;87.00
45066;DHT22;30830;53.704;10.004;2023-04-03T13:20:28;8.00;90.00
45066;DHT22;30830;53.704;10.004;2023-04-03T13:23:20;8.20;90.40
45066;DHT22;30830;53.704;10.004;2023-04-03T13:25:47;8.40;90.80
45066;DHT22;30830;53.704;10.004;2023-04-03T13:28:17;8.50;88.30
45066;DHT22;30830;53.704;10.004;2023-04-03T13:33:29;8.60;84.50
45066;DHT22;30830;53.704;10.004;2023-04-03T13:36:10;8.40;85.00
45066;DHT22;30830;53.704;10.004;2023-04-03T13:38:42;8.30;84.50
45066;DHT22;30830;53.704;10.004;2023-04-03T13:43:48;8.40;86.50
45066;DHT22;30830;53.704;10.004;2023-04-03T13:48:43;8.60;88.10
45066;DHT22;30830;53.704;10.004;2023-04-03T13:53:58;8.80;85.70
45066;DHT22;30830;53.704;10.004;2023-04-03T13:56:35;8.80;82.10
45066;DHT22;30830;53.704;10.004;2023-04-03T14:04:19;8.40;87.50
45066;DHT22;30830;53.704;10.004;2023-04-03T14:06:47;8.20;87.40
45066;DHT22;30830;53.704;10.004;2023-04-03T14:09:13;7.70;88.70
45066;DHT22;30830;53.704;10.004;2023-04-03T14:11:39;7.60;91.50
45066;DHT22;30830;53.704;10.004;2023-04-03T14:14:14;7.60;90.80
45066;DHT22;30830;53.704;10.004;2023-04-03T14:16:42;7.60;91.30
45066;DHT22;30830;53.704;10.004;2023-04-03T14:19:18;7.80;93.00
45066;DHT22;30830;53.704;10.004;2023-04-03T14:21:44;8.00;93.70
45066;DHT22;30830;53.704;10.004;2023-04-03T14:24:10;8.10;91.40
45066;DHT22;30830;53.704;10.004;2023-04-03T14:26:36;8.40;92.00
45066;DHT22;30830;53.704;10.004;2023-04-03T14:29:02;8.40;90.50
45066;DHT22;30830;53.704;10.004;2023-04-03T14:31:28;8.30;90.00
45066;DHT22;30830;53.704;10.004;2023-04-03T14:33:53;8.20;90.70
45066;DHT22;30830;53.704;10.004;2023-04-03T14:36:22;8.00;91.20
45066;DHT22;30830;53.704;10.004;2023-04-03T14:38:50;7.80;90.50
45066;DHT22;30830;53.704;10.004;2023-04-03T14:41:18;7.70;92.60
45066;DHT22;30830;53.704;10.004;2023-04-03T14:43:45;7.70;93.70
45066;DHT22;30830;53.704;10.004;2023-04-03T14:46:32;7.70;93.40
45066;DHT22;30830;53.704;10.004;2023-04-03T14:48:58;7.90;93.60
45066;DHT22;30830;53.704;10.004;2023-04-03T14:51:25;8.10;92.50
45066;DHT22;30830;53.704;10.004;2023-04-03T14:53:52;8.30;91.70
45066;DHT22;30830;53.704;10.004;2023-04-03T14:56:23;8.40;91.30
45066;DHT22;30830;53.704;10.004;2023-04-03T14:58:55;8.40;91.20
45066;DHT22;30830;53.704;10.004;2023-04-03T15:01:21;8.30;92.40
45066;DHT22;30830;53.704;10.004;2023-04-03T15:03:47;7.90;91.60
45066;DHT22;30830;53.704;10.004;2023-04-03T15:06:13;7.60;92.30
45066;DHT22;30830;53.704;10.004;2023-04-03T15:08:40;7.30;93.10
45066;DHT22;30830;53.704;10.004;2023-04-03T15:11:08;7.10;93.50
45066;DHT22;30830;53.704;10.004;2023-04-03T15:13:35;6.90;93.50
45066;DHT22;30830;53.704;10.004;2023-04-03T15:16:01;6.80;94.20
45066;DHT22;30830;53.704;10.004;2023-04-03T15:18:27;6.90;93.90
45066;DHT22;30830;53.704;10.004;2023-04-03T15:20:55;6.90;94.20
45066;DHT22;30830;53.704;10.004;2023-04-03T15:23:21;7.00;93.90
45066;DHT22;30830;53.704;10.004;2023-04-03T15:25:52;7.10;94.30
45066;DHT22;30830;53.704;10.004;2023-04-03T15:28:31;7.20;94.00
45066;DHT22;30830;53.704;10.004;2023-04-03T15:30:58;7.20;93.40
45066;DHT22;30830;53.704;10.004;2023-04-03T15:33:24;7.20;93.00
45066;DHT22;30830;53.704;10.004;2023-04-03T15:35:50;7.30;92.70
45066;DHT22;30830;53.704;10.004;2023-04-03T15:38:16;7.20;93.90
45066;DHT22;30830;53.704;10.004;2023-04-03T15:40:41;7.30;94.00
45066;DHT22;30830;53.704;10.004;2023-04-03T15:43:08;7.40;93.50
45066;DHT22;30830;53.704;10.004;2023-04-03T15:45:34;7.40;92.90
45066;DHT22;30830;53.704;10.004;2023-04-03T15:48:01;7.30;92.40
45066;DHT22;30830;53.704;10.004;2023-04-03T15:50:27;7.10;92.90
45066;DHT22;30830;53.704;10.004;2023-04-03T15:52:53;6.90;93.80
45066;DHT22;30830;53.704;10.004;2023-04-03T15:55:25;6.70;94.00
45066;DHT22;30830;53.704;10.004;2023-04-03T15:57:51;6.50;94.30
45066;DHT22;30830;53.704;10.004;2023-04-03T16:00:17;6.50;95.20
45066;DHT22;30830;53.704;10.004;2023-04-03T16:02:44;6.50;95.20
45066;DHT22;30830;53.704;10.004;2023-04-03T16:05:10;6.50;96.40
45066;DHT22;30830;53.704;10.004;2023-04-03T16:07:40;6.60;96.10
45066;DHT22;30830;53.704;10.004;2023-04-03T16:10:07;6.70;96.00
45066;DHT22;30830;53.704;10.004;2023-04-03T16:12:33;6.80;96.30
45066;DHT22;30830;53.704;10.004;2023-04-03T16:14:58;6.90;95.50
45066;DHT22;30830;53.704;10.004;2023-04-03T16:17:25;7.00;96.40
45066;DHT22;30830;53.704;10.004;2023-04-03T16:19:51;7.00;96.40
45066;DHT22;30830;53.704;10.004;2023-04-03T16:22:17;6.80;96.40
45066;DHT22;30830;53.704;10.004;2023-04-03T16:24:43;6.60;97.70
45066;DHT22;30830;53.704;10.004;2023-04-03T16:27:08;6.60;98.20
45066;DHT22;30830;53.704;10.004;2023-04-03T16:29:34;6.40;97.70
45066;DHT22;30830;53.704;10.004;2023-04-03T16:32:00;6.30;98.20
45066;DHT22;30830;53.704;10.004;2023-04-03T16:34:26;6.30;99.10
45066;DHT22;30830;53.704;10.004;2023-04-03T16:36:52;6.20;99.30
45066;DHT22;30830;53.704;10.004;2023-04-03T16:39:18;6.20;99.80
45066;DHT22;30830;53.704;10.004;2023-04-03T16:41:44;6.20;99.80
45066;DHT22;30830;53.704;10.004;2023-04-03T16:44:10;6.10;99.90
45066;DHT22;30830;53.704;10.004;2023-04-03T16:46:36;6.00;98.90
45066;DHT22;30830;53.704;10.004;2023-04-03T16:49:02;5.90;99.90
45066;DHT22;30830;53.704;10.004;2023-04-03T16:51:27;5.90;99.90
45066;DHT22;30830;53.704;10.004;2023-04-03T16:53:53;5.90;99.90
45066;DHT22;30830;53.704;10.004;2023-04-03T16:56:19;5.90;99.90
45066;DHT22;30830;53.704;10.004;2023-04-03T16:58:44;5.90;99.90
45066;DHT22;30830;53.704;10.004;2023-04-03T17:01:15;5.80;99.90
45066;DHT22;30830;53.704;10.004;2023-04-03T17:03:41;5.80;99.90
45066;DHT22;30830;53.704;10.004;2023-04-03T17:06:07;5.70;99.90
45066;DHT22;30830;53.704;10.004;2023-04-03T17:08:39;5.70;99.90
45066;DHT22;30830;53.704;10.004;2023-04-03T17:11:05;5.50;99.90
45066;DHT22;30830;53.704;10.004;2023-04-03T17:13:31;5.50;99.90
45066;DHT22;30830;53.704;10.004;2023-04-03T17:15:58;5.40;99.90
45066;DHT22;30830;53.704;10.004;2023-04-03T17:18:23;5.30;99.90
45066;DHT22;30830;53.704;10.004;2023-04-03T17:20:49;5.30;99.90
45066;DHT22;30830;53.704;10.004;2023-04-03T17:23:15;5.10;99.90
45066;DHT22;30830;53.704;10.004;2023-04-03T17:25:40;5.10;99.90
45066;DHT22;30830;53.704;10.004;2023-04-03T17:28:06;5.00;99.90